sensor_id;sensor_type;location;lat;lon;timestamp;temperature;humidity
3850;DHT22;1940;51.052;13.678;2023-01-24T00:02:06;1.70;95.20
3850;DHT22;1940;51.052;13.678;2023-01-24T00:04:31;1.70;95.20
3850;DHT22;1940;51.052;13.678;2023-01-24T00:06:57;1.70;95.20
3850;DHT22;1940;51.052;13.678;2023-01-24T00:09:22;1.70;95.20
3850;DHT22;1940;51.052;13.678;2023-01-24T00:11:48;1.70;95.20
3850;DHT22;1940;51.052;13.678;2023-01-24T00:14:13;1.70;95.20
3850;DHT22;1940;51.052;13.678;2023-01-24T00:16:39;1.70;95.20
3850;DHT22;1940;51.052;13.678;2023-01-24T00:19:04;1.70;95.20
3850;DHT22;1940;51.052;13.678;2023-01-24T00:21:30;1.60;95.20
3850;DHT22;1940;51.052;13.678;2023-01-24T00:23:55;1.60;95.20
3850;DHT22;1940;51.052;13.678;2023-01-24T00:26:22;1.70;95.20
3850;DHT22;1940;51.052;13.678;2023-01-24T00:28:48;1.70;95.20
3850;DHT22;1940;51.052;13.678;2023-01-24T00:31:14;1.70;95.20
3850;DHT22;1940;51.052;13.678;2023-01-24T00:33:40;1.70;95.20
3850;DHT22;1940;51.052;13.678;2023-01-24T00:36:06;1.70;95.20
3850;DHT22;1940;51.052;13.678;2023-01-24T00:38:32;1.70;95.20
3850;DHT22;1940;51.052;13.678;2023-01-24T00:40:58;1.70;95.20
3850;DHT22;1940;51.052;13.678;2023-01-24T00:43:23;1.70;95.20
3850;DHT22;1940;51.052;13.678;2023-01-24T00:45:51;1.70;95.20
3850;DHT22;1940;51.052;13.678;2023-01-24T00:48:16;1.70;95.20
3850;DHT22;1940;51.052;13.678;2023-01-24T00:50:42;1.70;95.20
3850;DHT22;1940;51.052;13.678;2023-01-24T00:53:07;1.70;95.20
3850;DHT22;1940;51.052;13.678;2023-01-24T00:55:33;1.70;95.20
3850;DHT22;1940;51.052;13.678;2023-01-24T00:57:58;1.70;95.20
3850;DHT22;1940;51.052;13.678;2023-01-24T01:00:24;1.70;95.20
3850;DHT22;1940;51.052;13.678;2023-01-24T01:02:50;1.70;95.20
3850;DHT22;1940;51.052;13.678;2023-01-24T01:05:16;1.70;95.20
3850;DHT22;1940;51.052;13.678;2023-01-24T01:07:42;1.70;95.20
3850;DHT22;1940;51.052;13.678;2023-01-24T01:10:08;1.60;95.20
3850;DHT22;1940;51.052;13.678;2023-01-24T01:12:34;1.60;95.20
3850;DHT22;1940;51.052;13.678;2023-01-24T01:14:59;1.50;95.20
3850;DHT22;1940;51.052;13.678;2023-01-24T01:17:26;1.60;95.20
3850;DHT22;1940;51.052;13.678;2023-01-24T01:19:52;1.50;95.20
3850;DHT22;1940;51.052;13.678;2023-01-24T01:22:18;1.60;95.20
3850;DHT22;1940;51.052;13.678;2023-01-24T01:24:43;1.50;95.20
3850;DHT22;1940;51.052;13.678;2023-01-24T01:27:09;1.50;95.20
3850;DHT22;1940;51.052;13.678;2023-01-24T01:29:35;1.50;95.20
3850;DHT22;1940;51.052;13.678;2023-01-24T01:32:00;1.50;95.20
3850;DHT22;1940;51.052;13.678;2023-01-24T01:34:26;1.60;95.20
3850;DHT22;1940;51.052;13.678;2023-01-24T01:36:51;1.60;95.20
3850;DHT22;1940;51.052;13.678;2023-01-24T01:39:17;1.60;95.20
3850;DHT22;1940;51.052;13.678;2023-01-24T01:41:42;1.50;95.20
3850;DHT22;1940;51.052;13.678;2023-01-24T01:44:25;1.60;95.20
3850;DHT22;1940;51.052;13.678;2023-01-24T01:47:24;1.60;95.20
3850;DHT22;1940;51.052;13.678;2023-01-24T01:50:00;1.50;95.20
3850;DHT22;1940;51.052;13.678;2023-01-24T01:52:31;1.50;95.20
3850;DHT22;1940;51.052;13.678;2023-01-24T01:55:01;1.50;95.20
3850;DHT22;1940;51.052;13.678;2023-01-24T01:57:30;1.50;95.20
3850;DHT22;1940;51.052;13.678;2023-01-24T01:59:59;1.50;95.20
3850;DHT22;1940;51.052;13.678;2023-01-24T02:02:26;1.50;95.20
3850;DHT22;1940;51.052;13.678;2023-01-24T02:04:56;1.50;95.20
3850;DHT22;1940;51.052;13.678;2023-01-24T02:10:45;1.50;95.20
3850;DHT22;1940;51.052;13.678;2023-01-24T02:13:29;1.50;95.20
3850;DHT22;1940;51.052;13.678;2023-01-24T02:15:56;1.60;95.20
3850;DHT22;1940;51.052;13.678;2023-01-24T02:18:30;1.60;95.20
3850;DHT22;1940;51.052;13.678;2023-01-24T02:20:56;1.60;95.20
3850;DHT22;1940;51.052;13.678;2023-01-24T02:23:41;1.70;95.20
3850;DHT22;1940;51.052;13.678;2023-01-24T02:26:16;1.70;95.20
3850;DHT22;1940;51.052;13.678;2023-01-24T02:31:19;1.80;95.20
3850;DHT22;1940;51.052;13.678;2023-01-24T02:33:44;1.70;95.20
3850;DHT22;1940;51.052;13.678;2023-01-24T02:38:43;1.80;95.20
3850;DHT22;1940;51.052;13.678;2023-01-24T02:41:10;1.80;95.20
3850;DHT22;1940;51.052;13.678;2023-01-24T02:43:42;1.70;95.20
3850;DHT22;1940;51.052;13.678;2023-01-24T02:46:09;1.70;95.20
3850;DHT22;1940;51.052;13.678;2023-01-24T02:48:34;1.60;95.20
3850;DHT22;1940;51.052;13.678;2023-01-24T02:50:59;1.60;95.20
3850;DHT22;1940;51.052;13.678;2023-01-24T02:53:43;1.60;95.20
3850;DHT22;1940;51.052;13.678;2023-01-24T02:56:09;1.60;95.20
3850;DHT22;1940;51.052;13.678;2023-01-24T02:58:54;1.60;95.20
3850;DHT22;1940;51.052;13.678;2023-01-24T03:01:21;1.50;95.20
3850;DHT22;1940;51.052;13.678;2023-01-24T03:03:48;1.50;95.20
3850;DHT22;1940;51.052;13.678;2023-01-24T03:06:15;1.50;95.20
3850;DHT22;1940;51.052;13.678;2023-01-24T03:08:41;1.40;95.20
3850;DHT22;1940;51.052;13.678;2023-01-24T03:11:08;1.40;95.20
3850;DHT22;1940;51.052;13.678;2023-01-24T03:13:34;1.40;95.20
3850;DHT22;1940;51.052;13.678;2023-01-24T03:16:19;1.40;95.20
3850;DHT22;1940;51.052;13.678;2023-01-24T03:19:03;1.40;95.20
3850;DHT22;1940;51.052;13.678;2023-01-24T03:21:48;1.40;95.20
3850;DHT22;1940;51.052;13.678;2023-01-24T03:24:32;1.40;95.20
3850;DHT22;1940;51.052;13.678;2023-01-24T03:27:16;1.40;95.20
3850;DHT22;1940;51.052;13.678;2023-01-24T03:30:00;1.40;95.20
3850;DHT22;1940;51.052;13.678;2023-01-24T03:32:44;1.40;95.20
3850;DHT22;1940;51.052;13.678;2023-01-24T03:35:29;1.40;95.20
3850;DHT22;1940;51.052;13.678;2023-01-24T03:37:55;1.40;95.20
3850;DHT22;1940;51.052;13.678;2023-01-24T03:40:39;1.40;95.20
3850;DHT22;1940;51.052;13.678;2023-01-24T03:43:05;1.30;95.20
3850;DHT22;1940;51.052;13.678;2023-01-24T03:45:33;1.40;95.20
3850;DHT22;1940;51.052;13.678;2023-01-24T03:48:01;1.40;95.20
3850;DHT22;1940;51.052;13.678;2023-01-24T03:50:37;1.40;95.20
3850;DHT22;1940;51.052;13.678;2023-01-24T03:53:24;1.40;95.20
3850;DHT22;1940;51.052;13.678;2023-01-24T03:55:57;1.40;95.20
3850;DHT22;1940;51.052;13.678;2023-01-24T03:58:24;1.40;95.20
3850;DHT22;1940;51.052;13.678;2023-01-24T04:00:51;1.40;95.20
3850;DHT22;1940;51.052;13.678;2023-01-24T04:03:17;1.30;95.20
3850;DHT22;1940;51.052;13.678;2023-01-24T04:05:43;1.40;95.20
3850;DHT22;1940;51.052;13.678;2023-01-24T04:08:08;1.40;95.20
3850;DHT22;1940;51.052;13.678;2023-01-24T04:10:34;1.40;95.20
3850;DHT22;1940;51.052;13.678;2023-01-24T04:13:00;1.40;95.20
3850;DHT22;1940;51.052;13.678;2023-01-24T04:15:28;1.40;95.20
3850;DHT22;1940;51.052;13.678;2023-01-24T04:17:55;1.40;95.20
3850;DHT22;1940;51.052;13.678;2023-01-24T04:20:25;1.40;95.20
3850;DHT22;1940;51.052;13.678;2023-01-24T04:22:50;1.40;95.20
3850;DHT22;1940;51.052;13.678;2023-01-24T04:25:16;1.40;95.20
3850;DHT22;1940;51.052;13.678;2023-01-24T04:27:42;1.50;95.20
3850;DHT22;1940;51.052;13.678;2023-01-24T04:30:09;1.50;95.20
3850;DHT22;1940;51.052;13.678;2023-01-24T04:32:35;1.40;95.20
3850;DHT22;1940;51.052;13.678;2023-01-24T04:35:01;1.50;95.20
3850;DHT22;1940;51.052;13.678;2023-01-24T04:37:29;1.50;95.20
3850;DHT22;1940;51.052;13.678;2023-01-24T04:39:54;1.40;95.20
3850;DHT22;1940;51.052;13.678;2023-01-24T04:42:20;1.40;95.20
3850;DHT22;1940;51.052;13.678;2023-01-24T04:44:45;1.30;95.20
3850;DHT22;1940;51.052;13.678;2023-01-24T04:47:11;1.30;95.20
3850;DHT22;1940;51.052;13.678;2023-01-24T04:49:37;1.30;95.20
3850;DHT22;1940;51.052;13.678;2023-01-24T04:52:02;1.30;95.20
3850;DHT22;1940;51.052;13.678;2023-01-24T04:54:28;1.30;95.20
3850;DHT22;1940;51.052;13.678;2023-01-24T04:56:53;1.30;95.20
3850;DHT22;1940;51.052;13.678;2023-01-24T04:59:19;1.30;95.20
3850;DHT22;1940;51.052;13.678;2023-01-24T05:01:44;1.30;95.20
3850;DHT22;1940;51.052;13.678;2023-01-24T05:04:10;1.30;95.20
3850;DHT22;1940;51.052;13.678;2023-01-24T05:06:36;1.30;95.20
3850;DHT22;1940;51.052;13.678;2023-01-24T05:09:02;1.30;95.20
3850;DHT22;1940;51.052;13.678;2023-01-24T05:11:28;1.30;95.20
3850;DHT22;1940;51.052;13.678;2023-01-24T05:13:53;1.30;95.20
3850;DHT22;1940;51.052;13.678;2023-01-24T05:16:19;1.30;95.20
3850;DHT22;1940;51.052;13.678;2023-01-24T05:18:44;1.30;95.20
3850;DHT22;1940;51.052;13.678;2023-01-24T05:21:15;1.30;95.20
3850;DHT22;1940;51.052;13.678;2023-01-24T05:23:41;1.30;95.20
3850;DHT22;1940;51.052;13.678;2023-01-24T05:26:07;1.20;95.20
3850;DHT22;1940;51.052;13.678;2023-01-24T05:28:33;1.20;95.20
3850;DHT22;1940;51.052;13.678;2023-01-24T05:31:00;1.30;95.20
3850;DHT22;1940;51.052;13.678;2023-01-24T05:33:25;1.30;95.20
3850;DHT22;1940;51.052;13.678;2023-01-24T05:39:13;1.40;95.20
3850;DHT22;1940;51.052;13.678;2023-01-24T05:41:40;1.30;95.20
3850;DHT22;1940;51.052;13.678;2023-01-24T05:44:05;1.40;95.20
3850;DHT22;1940;51.052;13.678;2023-01-24T05:46:31;1.30;95.20
3850;DHT22;1940;51.052;13.678;2023-01-24T05:48:56;1.40;95.20
3850;DHT22;1940;51.052;13.678;2023-01-24T05:51:22;1.40;95.20
3850;DHT22;1940;51.052;13.678;2023-01-24T05:53:48;1.40;95.20
3850;DHT22;1940;51.052;13.678;2023-01-24T05:56:16;1.30;95.20
3850;DHT22;1940;51.052;13.678;2023-01-24T05:58:43;1.30;95.20
3850;DHT22;1940;51.052;13.678;2023-01-24T06:01:10;1.30;95.20
3850;DHT22;1940;51.052;13.678;2023-01-24T06:03:41;1.30;95.20
3850;DHT22;1940;51.052;13.678;2023-01-24T06:06:09;1.30;95.20
3850;DHT22;1940;51.052;13.678;2023-01-24T06:08:34;1.30;95.20
3850;DHT22;1940;51.052;13.678;2023-01-24T06:11:10;1.30;95.20
3850;DHT22;1940;51.052;13.678;2023-01-24T06:13:35;1.40;95.20
3850;DHT22;1940;51.052;13.678;2023-01-24T06:16:12;1.40;95.20
3850;DHT22;1940;51.052;13.678;2023-01-24T06:18:39;1.40;95.20
3850;DHT22;1940;51.052;13.678;2023-01-24T06:21:07;1.30;95.20
3850;DHT22;1940;51.052;13.678;2023-01-24T06:23:34;1.40;95.20
3850;DHT22;1940;51.052;13.678;2023-01-24T06:26:00;1.50;95.20
3850;DHT22;1940;51.052;13.678;2023-01-24T06:28:25;1.50;95.20
3850;DHT22;1940;51.052;13.678;2023-01-24T06:31:02;1.50;95.20
3850;DHT22;1940;51.052;13.678;2023-01-24T06:36:55;1.50;95.20
3850;DHT22;1940;51.052;13.678;2023-01-24T06:39:26;1.50;95.20
3850;DHT22;1940;51.052;13.678;2023-01-24T06:41:52;1.50;95.20
3850;DHT22;1940;51.052;13.678;2023-01-24T06:44:18;1.50;95.20
3850;DHT22;1940;51.052;13.678;2023-01-24T06:46:43;1.60;95.20
3850;DHT22;1940;51.052;13.678;2023-01-24T06:49:12;1.60;95.20
3850;DHT22;1940;51.052;13.678;2023-01-24T06:51:37;1.70;95.20
3850;DHT22;1940;51.052;13.678;2023-01-24T06:54:03;1.60;95.20
3850;DHT22;1940;51.052;13.678;2023-01-24T06:56:28;1.60;95.20
3850;DHT22;1940;51.052;13.678;2023-01-24T06:58:54;1.60;95.20
3850;DHT22;1940;51.052;13.678;2023-01-24T07:01:19;1.60;95.20
3850;DHT22;1940;51.052;13.678;2023-01-24T07:03:45;1.80;95.20
3850;DHT22;1940;51.052;13.678;2023-01-24T07:06:10;1.80;95.20
3850;DHT22;1940;51.052;13.678;2023-01-24T07:08:36;1.90;95.20
3850;DHT22;1940;51.052;13.678;2023-01-24T07:11:02;1.90;95.20
3850;DHT22;1940;51.052;13.678;2023-01-24T07:13:27;1.90;95.20
3850;DHT22;1940;51.052;13.678;2023-01-24T07:15:53;1.80;95.20
3850;DHT22;1940;51.052;13.678;2023-01-24T07:18:19;1.70;95.20
3850;DHT22;1940;51.052;13.678;2023-01-24T07:20:45;1.70;95.20
3850;DHT22;1940;51.052;13.678;2023-01-24T07:23:25;1.80;95.20
3850;DHT22;1940;51.052;13.678;2023-01-24T07:25:54;1.70;95.20
3850;DHT22;1940;51.052;13.678;2023-01-24T07:28:20;1.70;95.20
3850;DHT22;1940;51.052;13.678;2023-01-24T07:30:46;1.70;95.20
3850;DHT22;1940;51.052;13.678;2023-01-24T07:33:13;1.70;95.20
3850;DHT22;1940;51.052;13.678;2023-01-24T07:35:39;1.70;95.20
3850;DHT22;1940;51.052;13.678;2023-01-24T07:38:05;1.70;95.20
3850;DHT22;1940;51.052;13.678;2023-01-24T07:40:31;1.80;95.20
3850;DHT22;1940;51.052;13.678;2023-01-24T07:43:02;1.90;95.20
3850;DHT22;1940;51.052;13.678;2023-01-24T07:45:28;1.80;95.20
3850;DHT22;1940;51.052;13.678;2023-01-24T07:47:58;1.90;95.20
3850;DHT22;1940;51.052;13.678;2023-01-24T07:50:24;1.80;95.20
3850;DHT22;1940;51.052;13.678;2023-01-24T07:52:51;1.90;95.20
3850;DHT22;1940;51.052;13.678;2023-01-24T07:55:17;1.80;95.20
3850;DHT22;1940;51.052;13.678;2023-01-24T07:57:42;1.90;95.20
3850;DHT22;1940;51.052;13.678;2023-01-24T08:00:09;1.90;95.20
3850;DHT22;1940;51.052;13.678;2023-01-24T08:02:34;1.80;95.20
3850;DHT22;1940;51.052;13.678;2023-01-24T08:05:00;1.90;95.20
3850;DHT22;1940;51.052;13.678;2023-01-24T08:07:25;1.90;95.20
3850;DHT22;1940;51.052;13.678;2023-01-24T08:09:51;1.80;95.20
3850;DHT22;1940;51.052;13.678;2023-01-24T08:12:17;1.90;95.20
3850;DHT22;1940;51.052;13.678;2023-01-24T08:14:42;1.90;95.20
3850;DHT22;1940;51.052;13.678;2023-01-24T08:17:08;1.90;95.20
3850;DHT22;1940;51.052;13.678;2023-01-24T08:19:34;2.00;95.20
3850;DHT22;1940;51.052;13.678;2023-01-24T08:22:01;2.00;95.20
3850;DHT22;1940;51.052;13.678;2023-01-24T08:24:26;2.00;95.20
3850;DHT22;1940;51.052;13.678;2023-01-24T08:26:52;2.00;95.20
3850;DHT22;1940;51.052;13.678;2023-01-24T08:29:17;2.00;95.20
3850;DHT22;1940;51.052;13.678;2023-01-24T08:31:43;2.00;95.20
3850;DHT22;1940;51.052;13.678;2023-01-24T08:34:12;2.00;95.20
3850;DHT22;1940;51.052;13.678;2023-01-24T08:36:37;2.00;95.20
3850;DHT22;1940;51.052;13.678;2023-01-24T08:39:03;2.00;95.20
3850;DHT22;1940;51.052;13.678;2023-01-24T08:41:29;2.00;95.20
3850;DHT22;1940;51.052;13.678;2023-01-24T08:43:55;2.00;95.20
3850;DHT22;1940;51.052;13.678;2023-01-24T08:46:21;1.90;95.20
3850;DHT22;1940;51.052;13.678;2023-01-24T08:48:46;2.00;95.20
3850;DHT22;1940;51.052;13.678;2023-01-24T08:51:12;2.00;95.20
3850;DHT22;1940;51.052;13.678;2023-01-24T08:53:37;2.00;95.20
3850;DHT22;1940;51.052;13.678;2023-01-24T08:56:03;2.10;95.20
3850;DHT22;1940;51.052;13.678;2023-01-24T08:58:29;2.10;95.20
3850;DHT22;1940;51.052;13.678;2023-01-24T09:00:57;2.10;95.20
3850;DHT22;1940;51.052;13.678;2023-01-24T09:03:23;2.10;95.20
3850;DHT22;1940;51.052;13.678;2023-01-24T09:05:48;2.00;95.20
3850;DHT22;1940;51.052;13.678;2023-01-24T09:08:14;2.10;95.20
3850;DHT22;1940;51.052;13.678;2023-01-24T09:10:39;2.10;95.20
3850;DHT22;1940;51.052;13.678;2023-01-24T09:13:05;2.00;95.20
3850;DHT22;1940;51.052;13.678;2023-01-24T09:15:31;2.00;95.20
3850;DHT22;1940;51.052;13.678;2023-01-24T09:18:00;2.00;95.20
3850;DHT22;1940;51.052;13.678;2023-01-24T09:20:26;2.00;95.20
3850;DHT22;1940;51.052;13.678;2023-01-24T09:22:51;2.00;95.20
3850;DHT22;1940;51.052;13.678;2023-01-24T09:25:17;2.10;95.20
3850;DHT22;1940;51.052;13.678;2023-01-24T09:27:42;2.10;95.20
3850;DHT22;1940;51.052;13.678;2023-01-24T09:30:09;2.10;95.20
3850;DHT22;1940;51.052;13.678;2023-01-24T09:32:35;2.10;95.20
3850;DHT22;1940;51.052;13.678;2023-01-24T09:35:01;2.10;95.20
3850;DHT22;1940;51.052;13.678;2023-01-24T09:37:26;2.00;95.20
3850;DHT22;1940;51.052;13.678;2023-01-24T09:39:52;2.00;95.20
3850;DHT22;1940;51.052;13.678;2023-01-24T09:42:41;2.10;95.20
3850;DHT22;1940;51.052;13.678;2023-01-24T09:47:48;2.10;95.20
3850;DHT22;1940;51.052;13.678;2023-01-24T09:50:21;2.20;95.20
3850;DHT22;1940;51.052;13.678;2023-01-24T09:52:52;2.20;95.20
3850;DHT22;1940;51.052;13.678;2023-01-24T09:55:29;2.30;95.20
3850;DHT22;1940;51.052;13.678;2023-01-24T10:01:14;2.10;95.20
3850;DHT22;1940;51.052;13.678;2023-01-24T10:03:40;2.10;95.20
3850;DHT22;1940;51.052;13.678;2023-01-24T10:06:29;2.10;95.20
3850;DHT22;1940;51.052;13.678;2023-01-24T10:09:27;2.10;95.20
3850;DHT22;1940;51.052;13.678;2023-01-24T10:12:13;2.20;95.20
3850;DHT22;1940;51.052;13.678;2023-01-24T10:17:42;2.30;95.20
3850;DHT22;1940;51.052;13.678;2023-01-24T10:20:30;2.30;95.20
3850;DHT22;1940;51.052;13.678;2023-01-24T10:23:18;2.20;95.20
3850;DHT22;1940;51.052;13.678;2023-01-24T10:25:51;2.30;95.20
3850;DHT22;1940;51.052;13.678;2023-01-24T10:28:26;2.20;95.20
3850;DHT22;1940;51.052;13.678;2023-01-24T10:30:56;2.10;95.20
3850;DHT22;1940;51.052;13.678;2023-01-24T10:33:28;2.20;95.20
3850;DHT22;1940;51.052;13.678;2023-01-24T10:36:08;2.10;95.20
3850;DHT22;1940;51.052;13.678;2023-01-24T10:38:35;2.20;95.20
3850;DHT22;1940;51.052;13.678;2023-01-24T10:41:22;2.20;95.20
3850;DHT22;1940;51.052;13.678;2023-01-24T10:43:53;2.20;95.20
3850;DHT22;1940;51.052;13.678;2023-01-24T10:49:00;2.20;95.20
3850;DHT22;1940;51.052;13.678;2023-01-24T10:51:27;2.30;95.20
3850;DHT22;1940;51.052;13.678;2023-01-24T10:54:00;2.20;95.20
3850;DHT22;1940;51.052;13.678;2023-01-24T10:56:25;2.20;95.20
3850;DHT22;1940;51.052;13.678;2023-01-24T10:59:11;2.20;95.20
3850;DHT22;1940;51.052;13.678;2023-01-24T11:01:47;2.20;95.20
3850;DHT22;1940;51.052;13.678;2023-01-24T11:04:20;2.20;95.20
3850;DHT22;1940;51.052;13.678;2023-01-24T11:06:48;2.30;95.20
3850;DHT22;1940;51.052;13.678;2023-01-24T11:09:19;2.20;95.20
3850;DHT22;1940;51.052;13.678;2023-01-24T11:11:50;2.20;95.20
3850;DHT22;1940;51.052;13.678;2023-01-24T11:14:25;2.20;95.20
3850;DHT22;1940;51.052;13.678;2023-01-24T11:16:56;2.20;95.20
3850;DHT22;1940;51.052;13.678;2023-01-24T11:19:35;2.30;95.20
3850;DHT22;1940;51.052;13.678;2023-01-24T11:22:24;2.30;95.20
3850;DHT22;1940;51.052;13.678;2023-01-24T11:24:50;2.40;95.20
3850;DHT22;1940;51.052;13.678;2023-01-24T11:27:21;2.40;95.20
3850;DHT22;1940;51.052;13.678;2023-01-24T11:30:05;2.40;95.20
3850;DHT22;1940;51.052;13.678;2023-01-24T11:33:00;2.40;95.20
3850;DHT22;1940;51.052;13.678;2023-01-24T11:35:34;2.40;95.20
3850;DHT22;1940;51.052;13.678;2023-01-24T11:38:21;2.40;95.20
3850;DHT22;1940;51.052;13.678;2023-01-24T11:43:49;2.40;95.20
3850;DHT22;1940;51.052;13.678;2023-01-24T11:49:34;2.30;95.20
3850;DHT22;1940;51.052;13.678;2023-01-24T11:52:24;2.30;95.20
3850;DHT22;1940;51.052;13.678;2023-01-24T11:58:11;2.40;95.20
3850;DHT22;1940;51.052;13.678;2023-01-24T12:00:56;2.50;95.20
3850;DHT22;1940;51.052;13.678;2023-01-24T12:03:43;2.50;95.20
3850;DHT22;1940;51.052;13.678;2023-01-24T12:06:44;2.50;95.20
3850;DHT22;1940;51.052;13.678;2023-01-24T12:09:17;2.50;95.20
3850;DHT22;1940;51.052;13.678;2023-01-24T12:12:02;2.50;95.20
3850;DHT22;1940;51.052;13.678;2023-01-24T12:17:32;2.50;95.20
3850;DHT22;1940;51.052;13.678;2023-01-24T12:23:01;2.50;95.20
3850;DHT22;1940;51.052;13.678;2023-01-24T12:25:35;2.50;95.20
3850;DHT22;1940;51.052;13.678;2023-01-24T12:28:05;2.50;95.20
3850;DHT22;1940;51.052;13.678;2023-01-24T12:30:44;2.50;95.20
3850;DHT22;1940;51.052;13.678;2023-01-24T12:33:33;2.50;95.20
3850;DHT22;1940;51.052;13.678;2023-01-24T12:36:22;2.50;95.20
3850;DHT22;1940;51.052;13.678;2023-01-24T12:38:52;2.50;95.20
3850;DHT22;1940;51.052;13.678;2023-01-24T12:46:58;2.60;95.20
3850;DHT22;1940;51.052;13.678;2023-01-24T12:50:08;2.50;95.20
3850;DHT22;1940;51.052;13.678;2023-01-24T12:52:46;2.50;95.20
3850;DHT22;1940;51.052;13.678;2023-01-24T12:55:20;2.50;95.20
3850;DHT22;1940;51.052;13.678;2023-01-24T12:58:01;2.50;95.20
3850;DHT22;1940;51.052;13.678;2023-01-24T13:00:38;2.50;95.20
3850;DHT22;1940;51.052;13.678;2023-01-24T13:06:20;2.50;95.20
3850;DHT22;1940;51.052;13.678;2023-01-24T13:09:23;2.50;95.20
3850;DHT22;1940;51.052;13.678;2023-01-24T13:11:52;2.60;95.20
3850;DHT22;1940;51.052;13.678;2023-01-24T13:14:34;2.60;95.20
3850;DHT22;1940;51.052;13.678;2023-01-24T13:17:17;2.60;95.20
3850;DHT22;1940;51.052;13.678;2023-01-24T13:26:03;2.60;95.20
3850;DHT22;1940;51.052;13.678;2023-01-24T13:31:22;2.60;95.20
3850;DHT22;1940;51.052;13.678;2023-01-24T13:33:53;2.70;95.20
3850;DHT22;1940;51.052;13.678;2023-01-24T13:36:21;2.60;95.20
3850;DHT22;1940;51.052;13.678;2023-01-24T13:38:48;2.70;95.20
3850;DHT22;1940;51.052;13.678;2023-01-24T13:41:31;2.60;95.20
3850;DHT22;1940;51.052;13.678;2023-01-24T13:44:25;2.60;95.20
3850;DHT22;1940;51.052;13.678;2023-01-24T13:49:35;2.50;95.20
3850;DHT22;1940;51.052;13.678;2023-01-24T13:52:49;2.50;95.20
3850;DHT22;1940;51.052;13.678;2023-01-24T13:54:49;2.40;95.20
3850;DHT22;1940;51.052;13.678;2023-01-24T13:57:36;2.30;95.20
3850;DHT22;1940;51.052;13.678;2023-01-24T14:02:41;2.30;95.20
3850;DHT22;1940;51.052;13.678;2023-01-24T14:08:16;2.30;95.20
3850;DHT22;1940;51.052;13.678;2023-01-24T14:10:46;2.30;95.20
3850;DHT22;1940;51.052;13.678;2023-01-24T14:13:41;2.40;95.20
3850;DHT22;1940;51.052;13.678;2023-01-24T14:16:11;2.40;95.20
3850;DHT22;1940;51.052;13.678;2023-01-24T14:18:47;2.40;95.20
3850;DHT22;1940;51.052;13.678;2023-01-24T14:21:22;2.30;95.20
3850;DHT22;1940;51.052;13.678;2023-01-24T14:23:56;2.40;95.20
3850;DHT22;1940;51.052;13.678;2023-01-24T14:26:26;2.40;95.20
3850;DHT22;1940;51.052;13.678;2023-01-24T14:28:57;2.40;95.20
3850;DHT22;1940;51.052;13.678;2023-01-24T14:31:32;2.40;95.20
3850;DHT22;1940;51.052;13.678;2023-01-24T14:34:15;2.40;95.20
3850;DHT22;1940;51.052;13.678;2023-01-24T14:36:43;2.30;95.20
3850;DHT22;1940;51.052;13.678;2023-01-24T14:39:20;2.20;95.20
3850;DHT22;1940;51.052;13.678;2023-01-24T14:42:33;2.20;95.20
3850;DHT22;1940;51.052;13.678;2023-01-24T14:44:38;2.20;95.20
3850;DHT22;1940;51.052;13.678;2023-01-24T14:47:16;2.10;95.20
3850;DHT22;1940;51.052;13.678;2023-01-24T14:49:44;2.10;95.20
3850;DHT22;1940;51.052;13.678;2023-01-24T14:52:24;2.10;95.20
3850;DHT22;1940;51.052;13.678;2023-01-24T14:54:53;2.10;95.20
3850;DHT22;1940;51.052;13.678;2023-01-24T14:57:24;2.10;95.20
3850;DHT22;1940;51.052;13.678;2023-01-24T15:02:59;2.10;95.20
3850;DHT22;1940;51.052;13.678;2023-01-24T15:05:36;2.00;95.20
3850;DHT22;1940;51.052;13.678;2023-01-24T15:08:06;2.00;95.20
3850;DHT22;1940;51.052;13.678;2023-01-24T15:10:39;2.00;95.20
3850;DHT22;1940;51.052;13.678;2023-01-24T15:13:22;2.00;95.20
3850;DHT22;1940;51.052;13.678;2023-01-24T15:15:49;2.00;95.20
3850;DHT22;1940;51.052;13.678;2023-01-24T15:18:36;2.00;95.20
3850;DHT22;1940;51.052;13.678;2023-01-24T15:21:03;1.90;95.20
3850;DHT22;1940;51.052;13.678;2023-01-24T15:23:30;1.90;95.20
3850;DHT22;1940;51.052;13.678;2023-01-24T15:25:56;2.00;95.20
3850;DHT22;1940;51.052;13.678;2023-01-24T15:28:30;2.00;95.20
3850;DHT22;1940;51.052;13.678;2023-01-24T15:31:00;2.00;95.20
3850;DHT22;1940;51.052;13.678;2023-01-24T15:33:40;2.00;95.20
3850;DHT22;1940;51.052;13.678;2023-01-24T15:36:22;2.00;95.20
3850;DHT22;1940;51.052;13.678;2023-01-24T15:38:49;2.00;95.20
3850;DHT22;1940;51.052;13.678;2023-01-24T15:41:23;2.00;95.20
3850;DHT22;1940;51.052;13.678;2023-01-24T15:43:55;2.10;95.20
3850;DHT22;1940;51.052;13.678;2023-01-24T15:46:25;2.10;95.20
3850;DHT22;1940;51.052;13.678;2023-01-24T15:49:31;2.10;95.20
3850;DHT22;1940;51.052;13.678;2023-01-24T15:54:30;2.10;95.20
3850;DHT22;1940;51.052;13.678;2023-01-24T15:56:59;2.10;95.20
3850;DHT22;1940;51.052;13.678;2023-01-24T15:59:26;2.20;95.20
3850;DHT22;1940;51.052;13.678;2023-01-24T16:01:52;2.20;95.20
3850;DHT22;1940;51.052;13.678;2023-01-24T16:04:19;2.10;95.20
3850;DHT22;1940;51.052;13.678;2023-01-24T16:06:46;2.20;95.20
3850;DHT22;1940;51.052;13.678;2023-01-24T16:09:12;2.20;95.20
3850;DHT22;1940;51.052;13.678;2023-01-24T16:11:42;2.10;95.20
3850;DHT22;1940;51.052;13.678;2023-01-24T16:14:13;2.00;95.20
3850;DHT22;1940;51.052;13.678;2023-01-24T16:16:40;2.10;95.20
3850;DHT22;1940;51.052;13.678;2023-01-24T16:19:18;2.10;95.20
3850;DHT22;1940;51.052;13.678;2023-01-24T16:21:44;2.00;95.20
3850;DHT22;1940;51.052;13.678;2023-01-24T16:24:10;2.10;95.20
3850;DHT22;1940;51.052;13.678;2023-01-24T16:26:35;2.00;95.20
3850;DHT22;1940;51.052;13.678;2023-01-24T16:29:02;2.00;95.20
3850;DHT22;1940;51.052;13.678;2023-01-24T16:31:27;2.00;95.20
3850;DHT22;1940;51.052;13.678;2023-01-24T16:33:53;2.00;95.20
3850;DHT22;1940;51.052;13.678;2023-01-24T16:36:18;2.00;95.20
3850;DHT22;1940;51.052;13.678;2023-01-24T16:38:46;2.00;95.20
3850;DHT22;1940;51.052;13.678;2023-01-24T16:41:12;2.00;95.20
3850;DHT22;1940;51.052;13.678;2023-01-24T16:43:41;2.10;95.20
3850;DHT22;1940;51.052;13.678;2023-01-24T16:46:19;2.10;95.20
3850;DHT22;1940;51.052;13.678;2023-01-24T16:48:45;2.10;95.20
3850;DHT22;1940;51.052;13.678;2023-01-24T16:51:15;2.10;95.20
3850;DHT22;1940;51.052;13.678;2023-01-24T16:53:41;2.10;95.20
3850;DHT22;1940;51.052;13.678;2023-01-24T16:56:07;2.20;95.20
3850;DHT22;1940;51.052;13.678;2023-01-24T16:58:32;2.20;95.20
3850;DHT22;1940;51.052;13.678;2023-01-24T17:00:58;2.20;95.20
3850;DHT22;1940;51.052;13.678;2023-01-24T17:03:23;2.20;95.20
3850;DHT22;1940;51.052;13.678;2023-01-24T17:05:49;2.30;95.20
3850;DHT22;1940;51.052;13.678;2023-01-24T17:08:15;2.30;95.20
3850;DHT22;1940;51.052;13.678;2023-01-24T17:10:41;2.30;95.20
3850;DHT22;1940;51.052;13.678;2023-01-24T17:13:08;2.30;95.20
3850;DHT22;1940;51.052;13.678;2023-01-24T17:15:35;2.30;95.20
3850;DHT22;1940;51.052;13.678;2023-01-24T17:18:01;2.40;95.20
3850;DHT22;1940;51.052;13.678;2023-01-24T17:20:27;2.30;95.20
3850;DHT22;1940;51.052;13.678;2023-01-24T17:22:53;2.30;95.20
3850;DHT22;1940;51.052;13.678;2023-01-24T17:25:18;2.40;95.20
3850;DHT22;1940;51.052;13.678;2023-01-24T17:27:44;2.40;95.20
3850;DHT22;1940;51.052;13.678;2023-01-24T17:30:10;2.30;95.20
3850;DHT22;1940;51.052;13.678;2023-01-24T17:32:36;2.30;95.20
3850;DHT22;1940;51.052;13.678;2023-01-24T17:35:04;2.30;95.20
3850;DHT22;1940;51.052;13.678;2023-01-24T17:37:30;2.30;95.20